sensor_id;sensor_type;location;lat;lon;timestamp;P1;durP1;ratioP1;P2;durP2;ratioP2
1122;SDS011;548;48.778;9.252;2022-09-28T00:17:25;28.27;;;26.97;;
1122;SDS011;548;48.778;9.252;2022-09-28T00:19:52;26.87;;;25.77;;
1122;SDS011;548;48.778;9.252;2022-09-28T00:22:19;26.70;;;25.50;;
1122;SDS011;548;48.778;9.252;2022-09-28T00:24:45;27.43;;;26.13;;
1122;SDS011;548;48.778;9.252;2022-09-28T00:27:12;27.43;;;26.10;;
1122;SDS011;548;48.778;9.252;2022-09-28T00:29:39;28.00;;;26.60;;
1122;SDS011;548;48.778;9.252;2022-09-28T00:32:08;28.80;;;27.20;;
1122;SDS011;548;48.778;9.252;2022-09-28T00:34:38;27.80;;;26.40;;
1122;SDS011;548;48.778;9.252;2022-09-28T00:37:07;27.57;;;26.17;;
1122;SDS011;548;48.778;9.252;2022-09-28T00:39:35;26.80;;;25.30;;
1122;SDS011;548;48.778;9.252;2022-09-28T00:42:02;28.20;;;26.70;;
1122;SDS011;548;48.778;9.252;2022-09-28T00:44:39;27.27;;;25.87;;
1122;SDS011;548;48.778;9.252;2022-09-28T00:47:13;27.87;;;26.37;;
1122;SDS011;548;48.778;9.252;2022-09-28T00:49:46;27.37;;;25.97;;
1122;SDS011;548;48.778;9.252;2022-09-28T00:52:24;28.63;;;26.90;;
1122;SDS011;548;48.778;9.252;2022-09-28T00:54:56;28.13;;;26.53;;
1122;SDS011;548;48.778;9.252;2022-09-28T00:57:25;27.43;;;26.13;;
1122;SDS011;548;48.778;9.252;2022-09-28T00:59:53;27.33;;;25.93;;
1122;SDS011;548;48.778;9.252;2022-09-28T01:02:20;25.90;;;24.60;;
1122;SDS011;548;48.778;9.252;2022-09-28T01:04:48;25.63;;;24.43;;
1122;SDS011;548;48.778;9.252;2022-09-28T01:07:16;26.10;;;24.70;;
1122;SDS011;548;48.778;9.252;2022-09-28T01:09:43;25.07;;;23.87;;
1122;SDS011;548;48.778;9.252;2022-09-28T01:12:11;25.93;;;24.50;;
1122;SDS011;548;48.778;9.252;2022-09-28T01:14:37;26.93;;;25.53;;
1122;SDS011;548;48.778;9.252;2022-09-28T01:17:06;26.93;;;25.73;;
1122;SDS011;548;48.778;9.252;2022-09-28T01:23:04;26.93;;;25.57;;
1122;SDS011;548;48.778;9.252;2022-09-28T01:25:53;26.30;;;25.03;;
1122;SDS011;548;48.778;9.252;2022-09-28T01:28:26;26.00;;;24.80;;
1122;SDS011;548;48.778;9.252;2022-09-28T01:30:56;25.83;;;24.63;;
1122;SDS011;548;48.778;9.252;2022-09-28T01:33:30;25.70;;;24.37;;
1122;SDS011;548;48.778;9.252;2022-09-28T01:36:03;26.20;;;24.90;;
1122;SDS011;548;48.778;9.252;2022-09-28T01:38:35;26.70;;;25.20;;
1122;SDS011;548;48.778;9.252;2022-09-28T01:41:05;26.93;;;25.53;;
1122;SDS011;548;48.778;9.252;2022-09-28T01:43:35;27.40;;;25.93;;
1122;SDS011;548;48.778;9.252;2022-09-28T05:16:33;33.20;;;31.40;;
1122;SDS011;548;48.778;9.252;2022-09-28T05:18:59;32.10;;;30.50;;
1122;SDS011;548;48.778;9.252;2022-09-28T05:21:26;33.73;;;31.93;;
1122;SDS011;548;48.778;9.252;2022-09-28T05:23:54;35.93;;;34.03;;
1122;SDS011;548;48.778;9.252;2022-09-28T05:26:22;36.57;;;34.77;;
1122;SDS011;548;48.778;9.252;2022-09-28T05:28:49;37.03;;;35.17;;
1122;SDS011;548;48.778;9.252;2022-09-28T05:31:15;36.73;;;35.00;;
1122;SDS011;548;48.778;9.252;2022-09-28T05:33:43;35.63;;;33.53;;
1122;SDS011;548;48.778;9.252;2022-09-28T05:36:10;35.20;;;33.30;;
1122;SDS011;548;48.778;9.252;2022-09-28T05:38:37;36.63;;;34.63;;
1122;SDS011;548;48.778;9.252;2022-09-28T05:41:04;38.23;;;36.03;;
1122;SDS011;548;48.778;9.252;2022-09-28T05:43:30;38.73;;;36.47;;
1122;SDS011;548;48.778;9.252;2022-09-28T05:45:57;37.57;;;35.50;;
1122;SDS011;548;48.778;9.252;2022-09-28T05:48:25;38.70;;;36.70;;
1122;SDS011;548;48.778;9.252;2022-09-28T05:50:53;39.77;;;37.27;;
1122;SDS011;548;48.778;9.252;2022-09-28T05:53:22;37.30;;;35.50;;
1122;SDS011;548;48.778;9.252;2022-09-28T05:55:50;37.10;;;35.20;;
1122;SDS011;548;48.778;9.252;2022-09-28T05:58:16;39.80;;;37.60;;
1122;SDS011;548;48.778;9.252;2022-09-28T06:00:43;34.17;;;32.37;;
1122;SDS011;548;48.778;9.252;2022-09-28T06:03:10;36.70;;;34.53;;
1122;SDS011;548;48.778;9.252;2022-09-28T06:05:38;35.90;;;33.80;;
1122;SDS011;548;48.778;9.252;2022-09-28T06:08:07;35.33;;;33.53;;
1122;SDS011;548;48.778;9.252;2022-09-28T06:10:35;35.17;;;33.20;;
1122;SDS011;548;48.778;9.252;2022-09-28T06:13:02;36.00;;;34.10;;
1122;SDS011;548;48.778;9.252;2022-09-28T06:15:30;35.63;;;33.93;;
1122;SDS011;548;48.778;9.252;2022-09-28T06:17:58;37.00;;;35.00;;
1122;SDS011;548;48.778;9.252;2022-09-28T06:20:26;34.07;;;32.37;;
1122;SDS011;548;48.778;9.252;2022-09-28T06:22:55;33.97;;;32.37;;
1122;SDS011;548;48.778;9.252;2022-09-28T06:25:24;37.13;;;34.70;;
1122;SDS011;548;48.778;9.252;2022-09-28T06:27:54;35.07;;;33.27;;
1122;SDS011;548;48.778;9.252;2022-09-28T06:30:22;36.90;;;35.10;;
1122;SDS011;548;48.778;9.252;2022-09-28T06:32:51;36.43;;;34.33;;
1122;SDS011;548;48.778;9.252;2022-09-28T06:35:18;37.27;;;35.37;;
1122;SDS011;548;48.778;9.252;2022-09-28T06:37:46;39.00;;;37.10;;
1122;SDS011;548;48.778;9.252;2022-09-28T06:40:53;37.80;;;35.83;;
1122;SDS011;548;48.778;9.252;2022-09-28T06:43:13;39.27;;;37.17;;
1122;SDS011;548;48.778;9.252;2022-09-28T06:45:41;38.57;;;36.57;;
1122;SDS011;548;48.778;9.252;2022-09-28T06:48:08;38.97;;;37.00;;
1122;SDS011;548;48.778;9.252;2022-09-28T06:50:36;40.10;;;37.80;;
1122;SDS011;548;48.778;9.252;2022-09-28T06:53:06;39.10;;;37.10;;
1122;SDS011;548;48.778;9.252;2022-09-28T06:55:37;38.67;;;36.77;;
1122;SDS011;548;48.778;9.252;2022-09-28T06:58:05;39.00;;;37.10;;
1122;SDS011;548;48.778;9.252;2022-09-28T07:00:36;41.30;;;39.20;;
1122;SDS011;548;48.778;9.252;2022-09-28T07:03:04;40.60;;;38.60;;
1122;SDS011;548;48.778;9.252;2022-09-28T07:05:32;39.50;;;37.40;;
1122;SDS011;548;48.778;9.252;2022-09-28T07:08:01;42.53;;;40.33;;
1122;SDS011;548;48.778;9.252;2022-09-28T07:10:29;40.80;;;38.50;;
1122;SDS011;548;48.778;9.252;2022-09-28T07:12:57;41.33;;;39.13;;
1122;SDS011;548;48.778;9.252;2022-09-28T07:15:27;40.97;;;38.73;;
1122;SDS011;548;48.778;9.252;2022-09-28T07:17:55;41.00;;;38.50;;
1122;SDS011;548;48.778;9.252;2022-09-28T07:20:23;40.63;;;38.40;;
1122;SDS011;548;48.778;9.252;2022-09-28T07:22:51;39.97;;;38.00;;
1122;SDS011;548;48.778;9.252;2022-09-28T07:25:18;40.67;;;38.50;;
1122;SDS011;548;48.778;9.252;2022-09-28T07:27:45;40.33;;;38.17;;
1122;SDS011;548;48.778;9.252;2022-09-28T07:30:12;41.93;;;39.63;;
1122;SDS011;548;48.778;9.252;2022-09-28T07:32:41;40.17;;;37.97;;
1122;SDS011;548;48.778;9.252;2022-09-28T07:35:10;41.70;;;39.10;;
1122;SDS011;548;48.778;9.252;2022-09-28T07:37:36;37.47;;;35.47;;
1122;SDS011;548;48.778;9.252;2022-09-28T07:40:03;41.60;;;39.50;;
1122;SDS011;548;48.778;9.252;2022-09-28T07:42:49;42.57;;;40.47;;
1122;SDS011;548;48.778;9.252;2022-09-28T07:45:16;39.63;;;37.43;;
1122;SDS011;548;48.778;9.252;2022-09-28T07:47:46;39.80;;;37.57;;
1122;SDS011;548;48.778;9.252;2022-09-28T07:50:12;39.40;;;37.30;;
1122;SDS011;548;48.778;9.252;2022-09-28T07:52:39;40.17;;;38.17;;
1122;SDS011;548;48.778;9.252;2022-09-28T07:55:08;40.53;;;38.53;;
1122;SDS011;548;48.778;9.252;2022-09-28T07:57:35;41.43;;;39.10;;
1122;SDS011;548;48.778;9.252;2022-09-28T08:00:02;39.80;;;37.80;;
1122;SDS011;548;48.778;9.252;2022-09-28T08:02:31;35.70;;;33.97;;
1122;SDS011;548;48.778;9.252;2022-09-28T08:05:00;38.60;;;36.50;;
1122;SDS011;548;48.778;9.252;2022-09-28T08:07:27;37.70;;;35.80;;
1122;SDS011;548;48.778;9.252;2022-09-28T08:09:54;35.67;;;33.50;;
1122;SDS011;548;48.778;9.252;2022-09-28T08:12:20;36.73;;;35.00;;
1122;SDS011;548;48.778;9.252;2022-09-28T08:14:47;35.03;;;33.27;;
1122;SDS011;548;48.778;9.252;2022-09-28T08:17:16;34.30;;;32.70;;
1122;SDS011;548;48.778;9.252;2022-09-28T08:19:42;31.90;;;30.10;;
1122;SDS011;548;48.778;9.252;2022-09-28T08:22:28;28.10;;;26.90;;
1122;SDS011;548;48.778;9.252;2022-09-28T08:24:56;26.80;;;25.53;;
1122;SDS011;548;48.778;9.252;2022-09-28T08:27:23;25.70;;;24.10;;
1122;SDS011;548;48.778;9.252;2022-09-28T08:29:50;25.23;;;23.70;;
1122;SDS011;548;48.778;9.252;2022-09-28T08:32:16;23.57;;;22.27;;
1122;SDS011;548;48.778;9.252;2022-09-28T08:34:43;22.30;;;21.30;;
1122;SDS011;548;48.778;9.252;2022-09-28T08:37:10;21.70;;;20.60;;
1122;SDS011;548;48.778;9.252;2022-09-28T08:39:38;20.27;;;19.23;;
1122;SDS011;548;48.778;9.252;2022-09-28T08:42:08;17.87;;;17.00;;
1122;SDS011;548;48.778;9.252;2022-09-28T08:44:56;16.40;;;15.60;;
1122;SDS011;548;48.778;9.252;2022-09-28T08:47:32;15.97;;;15.27;;
1122;SDS011;548;48.778;9.252;2022-09-28T08:50:22;14.90;;;14.30;;
1122;SDS011;548;48.778;9.252;2022-09-28T08:52:55;14.23;;;13.53;;
1122;SDS011;548;48.778;9.252;2022-09-28T08:55:26;14.83;;;13.93;;
1122;SDS011;548;48.778;9.252;2022-09-28T08:57:56;15.93;;;14.90;;
1122;SDS011;548;48.778;9.252;2022-09-28T09:00:30;15.00;;;14.33;;
1122;SDS011;548;48.778;9.252;2022-09-28T09:03:01;15.40;;;14.40;;
1122;SDS011;548;48.778;9.252;2022-09-28T09:05:36;14.60;;;13.90;;
1122;SDS011;548;48.778;9.252;2022-09-28T09:08:20;13.83;;;13.23;;
1122;SDS011;548;48.778;9.252;2022-09-28T09:10:58;15.07;;;13.93;;
1122;SDS011;548;48.778;9.252;2022-09-28T09:13:38;14.07;;;13.40;;
1122;SDS011;548;48.778;9.252;2022-09-28T09:16:17;13.77;;;13.00;;
1122;SDS011;548;48.778;9.252;2022-09-28T09:18:53;13.27;;;12.67;;
1122;SDS011;548;48.778;9.252;2022-09-28T09:21:29;14.20;;;13.40;;
1122;SDS011;548;48.778;9.252;2022-09-28T09:24:06;13.77;;;13.07;;
1122;SDS011;548;48.778;9.252;2022-09-28T09:26:44;14.17;;;13.47;;
1122;SDS011;548;48.778;9.252;2022-09-28T09:29:24;14.00;;;13.30;;
1122;SDS011;548;48.778;9.252;2022-09-28T09:32:00;14.00;;;13.33;;
1122;SDS011;548;48.778;9.252;2022-09-28T09:34:55;13.63;;;12.80;;
1122;SDS011;548;48.778;9.252;2022-09-28T09:37:34;12.57;;;11.97;;
1122;SDS011;548;48.778;9.252;2022-09-28T09:40:16;13.13;;;12.53;;
1122;SDS011;548;48.778;9.252;2022-09-28T09:43:04;13.70;;;12.90;;
1122;SDS011;548;48.778;9.252;2022-09-28T09:45:46;13.73;;;12.90;;
1122;SDS011;548;48.778;9.252;2022-09-28T09:48:23;14.17;;;13.57;;
1122;SDS011;548;48.778;9.252;2022-09-28T09:50:54;12.47;;;11.87;;
1122;SDS011;548;48.778;9.252;2022-09-28T09:53:26;13.17;;;12.57;;
1122;SDS011;548;48.778;9.252;2022-09-28T09:55:57;12.60;;;12.10;;
1122;SDS011;548;48.778;9.252;2022-09-28T09:58:32;12.60;;;12.10;;
1122;SDS011;548;48.778;9.252;2022-09-28T10:01:04;13.93;;;13.03;;
1122;SDS011;548;48.778;9.252;2022-09-28T10:03:35;13.73;;;12.97;;
1122;SDS011;548;48.778;9.252;2022-09-28T10:06:05;13.30;;;12.63;;
1122;SDS011;548;48.778;9.252;2022-09-28T10:08:36;13.20;;;12.57;;
1122;SDS011;548;48.778;9.252;2022-09-28T10:11:07;13.00;;;12.40;;
1122;SDS011;548;48.778;9.252;2022-09-28T10:13:39;13.43;;;12.77;;
1122;SDS011;548;48.778;9.252;2022-09-28T10:16:06;13.47;;;12.60;;
1122;SDS011;548;48.778;9.252;2022-09-28T10:18:33;12.70;;;12.10;;
1122;SDS011;548;48.778;9.252;2022-09-28T10:21:01;14.77;;;13.90;;
1122;SDS011;548;48.778;9.252;2022-09-28T10:23:28;12.67;;;11.90;;
1122;SDS011;548;48.778;9.252;2022-09-28T10:25:58;14.40;;;13.50;;
1122;SDS011;548;48.778;9.252;2022-09-28T10:28:32;13.10;;;12.30;;
1122;SDS011;548;48.778;9.252;2022-09-28T10:34:01;12.13;;;11.63;;
1122;SDS011;548;48.778;9.252;2022-09-28T10:36:29;12.60;;;12.00;;
1122;SDS011;548;48.778;9.252;2022-09-28T10:39:02;12.80;;;12.20;;
1122;SDS011;548;48.778;9.252;2022-09-28T10:41:29;12.30;;;11.70;;
1122;SDS011;548;48.778;9.252;2022-09-28T10:43:57;12.20;;;11.60;;
1122;SDS011;548;48.778;9.252;2022-09-28T10:46:31;12.73;;;12.20;;
1122;SDS011;548;48.778;9.252;2022-09-28T10:49:00;12.73;;;12.10;;
1122;SDS011;548;48.778;9.252;2022-09-28T10:51:39;13.13;;;12.50;;
1122;SDS011;548;48.778;9.252;2022-09-28T10:54:11;12.43;;;11.83;;
1122;SDS011;548;48.778;9.252;2022-09-28T10:56:40;12.53;;;11.93;;
1122;SDS011;548;48.778;9.252;2022-09-28T10:59:21;12.80;;;12.30;;
1122;SDS011;548;48.778;9.252;2022-09-28T11:01:51;13.27;;;12.57;;
1122;SDS011;548;48.778;9.252;2022-09-28T11:04:23;12.50;;;12.00;;
1122;SDS011;548;48.778;9.252;2022-09-28T11:06:52;12.47;;;11.87;;
1122;SDS011;548;48.778;9.252;2022-09-28T11:09:25;12.80;;;12.20;;
1122;SDS011;548;48.778;9.252;2022-09-28T11:11:54;12.60;;;12.07;;
1122;SDS011;548;48.778;9.252;2022-09-28T11:14:23;13.00;;;12.40;;
1122;SDS011;548;48.778;9.252;2022-09-28T11:17:13;12.93;;;12.23;;
1122;SDS011;548;48.778;9.252;2022-09-28T11:19:42;13.97;;;12.83;;
1122;SDS011;548;48.778;9.252;2022-09-28T11:22:19;12.77;;;12.23;;
1122;SDS011;548;48.778;9.252;2022-09-28T11:24:47;13.40;;;12.70;;
1122;SDS011;548;48.778;9.252;2022-09-28T11:27:21;12.67;;;11.93;;
1122;SDS011;548;48.778;9.252;2022-09-28T11:29:53;11.73;;;11.23;;
1122;SDS011;548;48.778;9.252;2022-09-28T11:32:23;11.73;;;11.23;;
1122;SDS011;548;48.778;9.252;2022-09-28T11:34:56;13.10;;;12.50;;
1122;SDS011;548;48.778;9.252;2022-09-28T11:37:29;12.93;;;12.27;;
1122;SDS011;548;48.778;9.252;2022-09-28T11:40:12;12.60;;;12.00;;
1122;SDS011;548;48.778;9.252;2022-09-28T11:42:49;13.37;;;12.57;;
1122;SDS011;548;48.778;9.252;2022-09-28T11:45:26;12.30;;;11.70;;
1122;SDS011;548;48.778;9.252;2022-09-28T11:47:59;14.47;;;13.63;;
1122;SDS011;548;48.778;9.252;2022-09-28T11:50:32;13.57;;;12.73;;
1122;SDS011;548;48.778;9.252;2022-09-28T11:53:09;13.37;;;12.70;;
1122;SDS011;548;48.778;9.252;2022-09-28T11:55:44;13.50;;;12.77;;
1122;SDS011;548;48.778;9.252;2022-09-28T11:58:16;11.80;;;11.30;;
1122;SDS011;548;48.778;9.252;2022-09-28T12:00:49;11.83;;;11.27;;
1122;SDS011;548;48.778;9.252;2022-09-28T12:03:22;12.67;;;12.10;;
1122;SDS011;548;48.778;9.252;2022-09-28T12:05:56;13.87;;;13.20;;
1122;SDS011;548;48.778;9.252;2022-09-28T12:08:27;12.03;;;11.40;;
1122;SDS011;548;48.778;9.252;2022-09-28T12:10:57;12.87;;;12.27;;
1122;SDS011;548;48.778;9.252;2022-09-28T12:13:27;13.50;;;13.00;;
1122;SDS011;548;48.778;9.252;2022-09-28T12:15:59;12.10;;;11.60;;
1122;SDS011;548;48.778;9.252;2022-09-28T12:18:29;11.57;;;10.97;;
1122;SDS011;548;48.778;9.252;2022-09-28T12:21:07;12.30;;;11.77;;
1122;SDS011;548;48.778;9.252;2022-09-28T12:23:40;12.17;;;11.67;;
1122;SDS011;548;48.778;9.252;2022-09-28T12:26:10;13.53;;;12.73;;
1122;SDS011;548;48.778;9.252;2022-09-28T12:28:47;12.70;;;12.03;;
1122;SDS011;548;48.778;9.252;2022-09-28T12:31:19;12.90;;;12.40;;
1122;SDS011;548;48.778;9.252;2022-09-28T12:33:50;13.27;;;12.57;;
1122;SDS011;548;48.778;9.252;2022-09-28T12:36:27;12.20;;;11.70;;
1122;SDS011;548;48.778;9.252;2022-09-28T12:39:11;13.17;;;12.40;;
1122;SDS011;548;48.778;9.252;2022-09-28T12:41:51;12.60;;;11.90;;
1122;SDS011;548;48.778;9.252;2022-09-28T12:44:33;12.53;;;11.93;;
1122;SDS011;548;48.778;9.252;2022-09-28T12:47:16;13.70;;;13.00;;
1122;SDS011;548;48.778;9.252;2022-09-28T12:49:57;13.03;;;12.40;;
1122;SDS011;548;48.778;9.252;2022-09-28T12:52:37;12.37;;;11.70;;
1122;SDS011;548;48.778;9.252;2022-09-28T12:55:14;11.10;;;10.70;;
1122;SDS011;548;48.778;9.252;2022-09-28T12:57:52;12.60;;;12.10;;
1122;SDS011;548;48.778;9.252;2022-09-28T13:00:23;12.90;;;12.20;;
1122;SDS011;548;48.778;9.252;2022-09-28T13:03:00;11.80;;;11.30;;
1122;SDS011;548;48.778;9.252;2022-09-28T13:05:42;12.10;;;11.50;;
1122;SDS011;548;48.778;9.252;2022-09-28T13:08:28;11.77;;;10.97;;
1122;SDS011;548;48.778;9.252;2022-09-28T13:11:03;12.20;;;11.50;;
1122;SDS011;548;48.778;9.252;2022-09-28T13:13:41;12.00;;;11.40;;
1122;SDS011;548;48.778;9.252;2022-09-28T13:16:16;11.90;;;11.30;;
1122;SDS011;548;48.778;9.252;2022-09-28T13:18:50;11.40;;;10.80;;
1122;SDS011;548;48.778;9.252;2022-09-28T13:21:26;12.07;;;11.57;;
1122;SDS011;548;48.778;9.252;2022-09-28T13:23:59;11.20;;;10.70;;
1122;SDS011;548;48.778;9.252;2022-09-28T13:26:29;11.17;;;10.70;;
1122;SDS011;548;48.778;9.252;2022-09-28T13:29:02;11.20;;;10.70;;
1122;SDS011;548;48.778;9.252;2022-09-28T13:31:36;11.50;;;11.00;;
1122;SDS011;548;48.778;9.252;2022-09-28T13:34:09;11.10;;;10.73;;
1122;SDS011;548;48.778;9.252;2022-09-28T13:36:44;12.63;;;12.00;;
1122;SDS011;548;48.778;9.252;2022-09-28T13:42:20;11.90;;;11.50;;
1122;SDS011;548;48.778;9.252;2022-09-28T13:44:53;11.90;;;11.40;;
1122;SDS011;548;48.778;9.252;2022-09-28T13:47:59;11.40;;;10.90;;
1122;SDS011;548;48.778;9.252;2022-09-28T13:53:49;11.33;;;10.93;;
1122;SDS011;548;48.778;9.252;2022-09-28T13:56:29;12.03;;;11.53;;
1122;SDS011;548;48.778;9.252;2022-09-28T13:59:02;12.37;;;11.87;;
1122;SDS011;548;48.778;9.252;2022-09-28T14:01:40;10.93;;;10.47;;
1122;SDS011;548;48.778;9.252;2022-09-28T14:04:12;11.00;;;10.47;;
1122;SDS011;548;48.778;9.252;2022-09-28T14:06:43;10.30;;;10.00;;
1122;SDS011;548;48.778;9.252;2022-09-28T14:15:13;11.00;;;10.60;;
1122;SDS011;548;48.778;9.252;2022-09-28T14:21:11;11.50;;;11.10;;
1122;SDS011;548;48.778;9.252;2022-09-28T14:23:58;10.90;;;10.40;;
1122;SDS011;548;48.778;9.252;2022-09-28T14:26:47;10.90;;;10.50;;
1122;SDS011;548;48.778;9.252;2022-09-28T14:29:29;10.80;;;10.40;;
1122;SDS011;548;48.778;9.252;2022-09-28T14:32:03;11.00;;;10.50;;
1122;SDS011;548;48.778;9.252;2022-09-28T14:34:46;10.27;;;9.87;;
1122;SDS011;548;48.778;9.252;2022-09-28T14:37:21;10.10;;;9.80;;
1122;SDS011;548;48.778;9.252;2022-09-28T14:40:15;11.20;;;10.80;;
1122;SDS011;548;48.778;9.252;2022-09-28T14:48:56;11.60;;;11.20;;
1122;SDS011;548;48.778;9.252;2022-09-28T14:51:41;11.83;;;11.33;;
1122;SDS011;548;48.778;9.252;2022-09-28T14:54:13;12.07;;;11.50;;
1122;SDS011;548;48.778;9.252;2022-09-28T14:56:44;11.50;;;11.07;;
1122;SDS011;548;48.778;9.252;2022-09-28T14:59:37;10.83;;;10.37;;
1122;SDS011;548;48.778;9.252;2022-09-28T15:02:07;11.17;;;10.57;;
1122;SDS011;548;48.778;9.252;2022-09-28T15:04:44;11.23;;;10.80;;
1122;SDS011;548;48.778;9.252;2022-09-28T15:07:18;10.93;;;10.33;;
1122;SDS011;548;48.778;9.252;2022-09-28T15:09:47;12.30;;;11.50;;
1122;SDS011;548;48.778;9.252;2022-09-28T15:12:15;10.90;;;10.40;;
1122;SDS011;548;48.778;9.252;2022-09-28T15:14:45;10.60;;;10.20;;
1122;SDS011;548;48.778;9.252;2022-09-28T15:17:17;10.50;;;10.20;;
1122;SDS011;548;48.778;9.252;2022-09-28T15:19:50;11.10;;;10.67;;
1122;SDS011;548;48.778;9.252;2022-09-28T15:22:25;11.27;;;10.83;;
1122;SDS011;548;48.778;9.252;2022-09-28T15:24:54;9.83;;;9.43;;
1122;SDS011;548;48.778;9.252;2022-09-28T15:27:22;9.90;;;9.60;;
1122;SDS011;548;48.778;9.252;2022-09-28T15:29:56;10.20;;;9.80;;
1122;SDS011;548;48.778;9.252;2022-09-28T15:32:23;10.40;;;10.00;;
1122;SDS011;548;48.778;9.252;2022-09-28T15:34:51;11.40;;;10.70;;
1122;SDS011;548;48.778;9.252;2022-09-28T15:37:19;11.20;;;10.60;;
1122;SDS011;548;48.778;9.252;2022-09-28T15:39:48;10.67;;;10.37;;
1122;SDS011;548;48.778;9.252;2022-09-28T15:42:16;10.20;;;9.80;;
1122;SDS011;548;48.778;9.252;2022-09-28T15:45:00;11.37;;;10.87;;
1122;SDS011;548;48.778;9.252;2022-09-28T15:47:31;11.50;;;11.00;;
1122;SDS011;548;48.778;9.252;2022-09-28T15:50:01;9.97;;;9.57;;
1122;SDS011;548;48.778;9.252;2022-09-28T15:52:31;10.77;;;10.30;;
1122;SDS011;548;48.778;9.252;2022-09-28T15:55:03;10.80;;;10.40;;
1122;SDS011;548;48.778;9.252;2022-09-28T15:57:41;10.93;;;10.43;;
1122;SDS011;548;48.778;9.252;2022-09-28T16:00:21;10.67;;;10.20;;
1122;SDS011;548;48.778;9.252;2022-09-28T16:02:59;10.50;;;10.10;;
1122;SDS011;548;48.778;9.252;2022-09-28T16:05:38;10.30;;;9.90;;
1122;SDS011;548;48.778;9.252;2022-09-28T16:08:12;10.60;;;10.10;;
1122;SDS011;548;48.778;9.252;2022-09-28T16:10:52;10.30;;;9.90;;
1122;SDS011;548;48.778;9.252;2022-09-28T16:13:31;10.40;;;9.70;;
1122;SDS011;548;48.778;9.252;2022-09-28T16:15:59;9.53;;;9.10;;
1122;SDS011;548;48.778;9.252;2022-09-28T16:18:26;10.10;;;9.60;;
1122;SDS011;548;48.778;9.252;2022-09-28T16:20:57;10.23;;;9.70;;
1122;SDS011;548;48.778;9.252;2022-09-28T16:23:48;11.63;;;10.60;;
1122;SDS011;548;48.778;9.252;2022-09-28T16:26:25;10.63;;;10.30;;
1122;SDS011;548;48.778;9.252;2022-09-28T16:28:56;9.90;;;9.47;;
1122;SDS011;548;48.778;9.252;2022-09-28T16:31:30;9.77;;;9.27;;
1122;SDS011;548;48.778;9.252;2022-09-28T16:34:08;9.93;;;9.43;;
1122;SDS011;548;48.778;9.252;2022-09-28T16:36:45;11.13;;;10.40;;
1122;SDS011;548;48.778;9.252;2022-09-28T16:39:16;10.47;;;9.90;;
1122;SDS011;548;48.778;9.252;2022-09-28T16:41:44;10.10;;;9.70;;
1122;SDS011;548;48.778;9.252;2022-09-28T16:44:17;10.20;;;9.70;;
1122;SDS011;548;48.778;9.252;2022-09-28T16:46:48;10.47;;;10.07;;
1122;SDS011;548;48.778;9.252;2022-09-28T16:49:18;9.63;;;9.23;;
1122;SDS011;548;48.778;9.252;2022-09-28T16:51:46;10.50;;;10.10;;
1122;SDS011;548;48.778;9.252;2022-09-28T16:54:15;10.20;;;9.70;;
1122;SDS011;548;48.778;9.252;2022-09-28T16:57:01;11.37;;;10.83;;
1122;SDS011;548;48.778;9.252;2022-09-28T16:59:30;10.77;;;10.27;;
1122;SDS011;548;48.778;9.252;2022-09-28T17:01:57;11.03;;;10.53;;
1122;SDS011;548;48.778;9.252;2022-09-28T17:04:24;11.03;;;10.57;;
1122;SDS011;548;48.778;9.252;2022-09-28T17:06:53;10.33;;;9.83;;
1122;SDS011;548;48.778;9.252;2022-09-28T17:09:22;10.90;;;10.30;;
1122;SDS011;548;48.778;9.252;2022-09-28T17:11:49;11.50;;;10.60;;
1122;SDS011;548;48.778;9.252;2022-09-28T17:14:20;10.53;;;10.13;;
1122;SDS011;548;48.778;9.252;2022-09-28T17:16:47;11.73;;;11.00;;
1122;SDS011;548;48.778;9.252;2022-09-28T17:19:18;11.80;;;10.97;;
1122;SDS011;548;48.778;9.252;2022-09-28T17:21:46;13.77;;;12.87;;
1122;SDS011;548;48.778;9.252;2022-09-28T17:24:14;11.87;;;11.07;;
1122;SDS011;548;48.778;9.252;2022-09-28T17:26:41;12.40;;;11.80;;
1122;SDS011;548;48.778;9.252;2022-09-28T17:29:10;12.40;;;11.90;;
1122;SDS011;548;48.778;9.252;2022-09-28T17:31:38;11.97;;;11.47;;
1122;SDS011;548;48.778;9.252;2022-09-28T17:34:06;12.43;;;11.60;;
1122;SDS011;548;48.778;9.252;2022-09-28T17:36:34;12.37;;;11.57;;
1122;SDS011;548;48.778;9.252;2022-09-28T17:39:01;13.80;;;13.07;;
1122;SDS011;548;48.778;9.252;2022-09-28T17:41:30;14.27;;;13.47;;
1122;SDS011;548;48.778;9.252;2022-09-28T17:43:58;13.53;;;12.93;;
1122;SDS011;548;48.778;9.252;2022-09-28T17:46:28;13.60;;;12.87;;
1122;SDS011;548;48.778;9.252;2022-09-28T17:48:56;13.00;;;12.30;;
1122;SDS011;548;48.778;9.252;2022-09-28T17:51:24;12.67;;;11.87;;
1122;SDS011;548;48.778;9.252;2022-09-28T17:53:51;12.97;;;12.27;;
1122;SDS011;548;48.778;9.252;2022-09-28T17:56:22;13.17;;;12.40;;
1122;SDS011;548;48.778;9.252;2022-09-28T17:58:52;13.77;;;12.87;;
1122;SDS011;548;48.778;9.252;2022-09-28T18:01:19;12.17;;;11.50;;
1122;SDS011;548;48.778;9.252;2022-09-28T18:03:45;13.63;;;12.57;;
1122;SDS011;548;48.778;9.252;2022-09-28T18:06:13;14.40;;;13.50;;
1122;SDS011;548;48.778;9.252;2022-09-28T18:08:43;12.47;;;11.87;;
1122;SDS011;548;48.778;9.252;2022-09-28T18:11:11;13.63;;;12.90;;
1122;SDS011;548;48.778;9.252;2022-09-28T18:13:37;13.33;;;12.50;;
1122;SDS011;548;48.778;9.252;2022-09-28T18:16:06;12.70;;;12.00;;
1122;SDS011;548;48.778;9.252;2022-09-28T18:18:33;13.93;;;13.03;;
1122;SDS011;548;48.778;9.252;2022-09-28T18:21:02;14.00;;;13.00;;
1122;SDS011;548;48.778;9.252;2022-09-28T18:23:29;12.97;;;12.37;;
1122;SDS011;548;48.778;9.252;2022-09-28T18:25:56;13.90;;;12.77;;
1122;SDS011;548;48.778;9.252;2022-09-28T18:28:22;13.53;;;12.63;;
1122;SDS011;548;48.778;9.252;2022-09-28T18:30:49;13.63;;;12.70;;
1122;SDS011;548;48.778;9.252;2022-09-28T18:33:17;15.73;;;14.57;;
1122;SDS011;548;48.778;9.252;2022-09-28T18:35:49;15.03;;;14.13;;
1122;SDS011;548;48.778;9.252;2022-09-28T18:38:17;15.23;;;14.33;;
1122;SDS011;548;48.778;9.252;2022-09-28T18:40:43;14.50;;;13.77;;
1122;SDS011;548;48.778;9.252;2022-09-28T18:43:12;14.80;;;14.10;;
1122;SDS011;548;48.778;9.252;2022-09-28T18:45:38;14.97;;;14.17;;
1122;SDS011;548;48.778;9.252;2022-09-28T18:48:05;16.10;;;15.20;;
1122;SDS011;548;48.778;9.252;2022-09-28T18:50:33;14.80;;;13.80;;
1122;SDS011;548;48.778;9.252;2022-09-28T18:53:00;15.10;;;14.30;;
1122;SDS011;548;48.778;9.252;2022-09-28T18:55:36;18.47;;;16.50;;
1122;SDS011;548;48.778;9.252;2022-09-28T18:58:03;15.57;;;14.53;;
1122;SDS011;548;48.778;9.252;2022-09-28T19:00:30;16.47;;;15.27;;
1122;SDS011;548;48.778;9.252;2022-09-28T19:02:57;15.97;;;15.00;;
1122;SDS011;548;48.778;9.252;2022-09-28T19:05:26;15.70;;;14.87;;
1122;SDS011;548;48.778;9.252;2022-09-28T19:07:54;16.30;;;15.47;;
1122;SDS011;548;48.778;9.252;2022-09-28T19:10:21;15.33;;;14.53;;
1122;SDS011;548;48.778;9.252;2022-09-28T19:12:48;16.47;;;15.57;;
1122;SDS011;548;48.778;9.252;2022-09-28T19:15:16;16.03;;;14.67;;
1122;SDS011;548;48.778;9.252;2022-09-28T19:17:43;16.20;;;15.13;;
1122;SDS011;548;48.778;9.252;2022-09-28T19:20:11;18.60;;;17.40;;
1122;SDS011;548;48.778;9.252;2022-09-28T19:22:38;16.43;;;15.53;;
1122;SDS011;548;48.778;9.252;2022-09-28T19:25:07;17.43;;;16.20;;
1122;SDS011;548;48.778;9.252;2022-09-28T19:27:34;17.20;;;16.10;;
1122;SDS011;548;48.778;9.252;2022-09-28T19:30:01;16.53;;;15.60;;
1122;SDS011;548;48.778;9.252;2022-09-28T19:32:28;15.23;;;14.33;;
1122;SDS011;548;48.778;9.252;2022-09-28T19:34:55;16.80;;;15.90;;
1122;SDS011;548;48.778;9.252;2022-09-28T19:37:24;16.77;;;15.77;;
1122;SDS011;548;48.778;9.252;2022-09-28T19:39:51;16.37;;;15.50;;
1122;SDS011;548;48.778;9.252;2022-09-28T19:42:19;16.97;;;15.87;;
1122;SDS011;548;48.778;9.252;2022-09-28T19:44:46;15.50;;;14.77;;